Карточка аэропорта USTR

Внимание!
Информация на этой странице в стадии наполнения.
Если вы не увидели какой-то информации, или заметили неточность - пожалуйста сообщите нам!
Спасибо!
Команда RU-STAFF
Название аэропортаРощино
Название аэропорта (англ.)Roshschino
Превышение378 ft. (115.2 m.)
Координаты57°10.098', 65°19.002'
Высота перехода3000ft
Эшелон переходаQNH⩾1013hPa:FL040; QNH⩾977hPa:FL050; QNH⩽977hPa:FL060
Коды ответчика5101-5137
Зона ОрВДТюмень РПИ (USTV)
Данные METARUSTR 291030Z 27004MPS 9999 SCT038CB 01/M11 Q1024 R21/090065 R30/090065 TEMPO 2100 -SHSN SCT007 BKN016CB
Проноз погоды (TAF)USTR 290751Z 2909/0109 25007G14MPS 9999 BKN020CB TEMPO 2909/2912 2100 -SHSN SCT007 BKN016CB FM291200 27006G14MPS 2100 -SHSN BLSN BKN016CB TEMPO 2912/2924 0500 +SHSN VV003 FM010000 31005G12MPS 6000 -SHSN DRSN BKN016CB TEMPO 0100/0106 1500 SHSN BKN006 BKN016CB
NOTAMshow/hide NOTAM
AWOS   TABLE

Информация о ВПП

ВПП Длина ВПП (м.) Покрытие Курс ВПП Частота ILS
033003Асфальтобетон34108.3
122704Асфальтобетон121 
213003Асфальтобетон214110.7
302704Асфальтобетон301 

Диспетчерские позиции

Позывной Наименование органа УВД Частота
USTR_TWRТюмень-Старт118.200
USTR_GNDТюмень-Руление119.000
USTR_R_APPТюмень-Круг126.100



Спутниковое изображение